Time;durP1;ratioP1;P1;durP2;ratioP2;P2;SDS_P1;SDS_P2;PMS_P1;PMS_P2;Temp;Humidity;BMP_temperature;BMP_pressure;BME280_temperature;BME280_humidity;BME280_pressure;Samples;Min_cycle;Max_cycle;Signal;HPM_P1;HPM_P2
2021/05/02 00:00:30;;;;;;;5.20;3.80;;;7.70;99.90;;;;;;5036525;28;20686;-65
2021/05/02 00:02:57;;;;;;;7.88;5.50;;;7.80;99.90;;;;;;5035733;28;20176;-65
2021/05/02 00:05:24;;;;;;;6.25;3.92;;;7.80;99.90;;;;;;5037230;28;20177;-65
2021/05/02 00:07:51;;;;;;;4.82;3.83;;;7.70;99.90;;;;;;5035606;28;20167;-65
2021/05/02 00:10:19;;;;;;;2.83;2.33;;;7.70;99.90;;;;;;5036786;28;20501;-64
2021/05/02 00:12:45;;;;;;;7.05;4.13;;;7.80;99.90;;;;;;5029871;28;20182;-66
2021/05/02 00:15:14;;;;;;;5.32;4.82;;;7.80;99.90;;;;;;5017050;28;20178;-66
2021/05/02 00:17:43;;;;;;;6.00;5.50;;;7.70;99.90;;;;;;5020943;28;20204;-65
2021/05/02 00:20:10;;;;;;;5.03;4.35;;;7.70;99.90;;;;;;5036839;28;20206;-65
2021/05/02 00:22:37;;;;;;;6.68;4.45;;;7.80;99.90;;;;;;5032386;28;20171;-66
2021/05/02 00:25:08;;;;;;;11.25;6.68;;;7.80;99.90;;;;;;5016847;28;20198;-66
2021/05/02 00:27:34;;;;;;;6.75;3.25;;;7.80;99.90;;;;;;5032673;28;20186;-65
2021/05/02 00:30:00;;;;;;;6.25;3.42;;;7.80;99.90;;;;;;5036414;28;20199;-65
2021/05/02 00:32:28;;;;;;;2.30;2.20;;;7.80;99.90;;;;;;5034344;28;20589;-65
2021/05/02 00:34:55;;;;;;;2.88;2.67;;;7.80;99.90;;;;;;5017918;28;20175;-64
2021/05/02 00:37:20;;;;;;;5.63;2.90;;;7.80;99.90;;;;;;5032759;28;20230;-66
2021/05/02 00:39:46;;;;;;;4.93;4.53;;;7.80;99.90;;;;;;5016422;28;20677;-65
2021/05/02 00:42:20;;;;;;;4.90;3.50;;;7.80;99.90;;;;;;5016548;28;20432;-65
2021/05/02 00:44:49;;;;;;;3.03;2.83;;;7.80;99.90;;;;;;5034582;28;20909;-66
2021/05/02 00:47:29;;;;;;;4.78;3.38;;;7.80;99.90;;;;;;5035763;28;20173;-65
2021/05/02 00:49:58;;;;;;;2.75;2.55;;;7.70;99.90;;;;;;5016088;28;20568;-66
2021/05/02 00:52:50;;;;;;;3.40;3.10;;;7.70;99.90;;;;;;5016096;28;20232;-66
2021/05/02 00:55:41;;;;;;;5.25;3.67;;;7.60;99.90;;;;;;5016109;28;20217;-66
2021/05/02 00:58:10;;;;;;;7.28;6.60;;;7.50;99.90;;;;;;5021108;28;20221;-65
2021/05/02 01:00:41;;;;;;;4.90;3.50;;;7.50;99.90;;;;;;5035671;28;20282;-65
2021/05/02 01:03:07;;;;;;;3.45;2.55;;;7.50;99.90;;;;;;5031024;28;20166;-67
2021/05/02 01:05:34;;;;;;;3.22;3.05;;;7.40;99.90;;;;;;5015108;28;20156;-65
2021/05/02 01:08:02;;;;;;;2.88;1.92;;;7.40;99.90;;;;;;5034339;28;20190;-66
2021/05/02 01:10:29;;;;;;;7.78;2.58;;;7.40;99.90;;;;;;5035845;28;20189;-67
2021/05/02 01:13:03;;;;;;;2.58;2.33;;;7.40;99.90;;;;;;5032769;28;20182;-66
2021/05/02 01:15:36;;;;;;;3.60;2.30;;;7.30;99.90;;;;;;5022021;28;20177;-65
2021/05/02 01:18:04;;;;;;;4.90;4.35;;;7.40;99.90;;;;;;5033279;28;20194;-66
2021/05/02 01:20:37;;;;;;;8.95;4.75;;;7.40;99.90;;;;;;5050702;28;20199;-65
2021/05/02 01:23:18;;;;;;;2.80;2.15;;;7.30;99.90;;;;;;5030528;28;20170;-65
2021/05/02 01:25:44;;;;;;;3.10;2.90;;;7.30;99.90;;;;;;5015455;28;20166;-66
2021/05/02 01:28:10;;;;;;;5.43;4.95;;;7.30;99.90;;;;;;5020144;28;20277;-66
2021/05/02 01:30:37;;;;;;;8.80;5.03;;;7.30;99.90;;;;;;5033635;28;20205;-65
2021/05/02 01:33:04;;;;;;;2.92;2.60;;;7.40;99.90;;;;;;5030649;28;20662;-66
2021/05/02 01:35:29;;;;;;;4.93;4.53;;;7.40;99.90;;;;;;5015451;28;20183;-66
2021/05/02 01:37:55;;;;;;;11.33;5.10;;;7.40;99.90;;;;;;5016818;28;20321;-67
2021/05/02 01:40:21;;;;;;;4.57;4.18;;;7.30;99.90;;;;;;5015434;28;20542;-66
2021/05/02 01:42:48;;;;;;;12.23;6.03;;;7.30;99.90;;;;;;5015924;28;20220;-66
2021/05/02 01:45:14;;;;;;;3.50;3.28;;;7.30;99.90;;;;;;5034917;28;20490;-66
2021/05/02 01:47:48;;;;;;;2.75;2.65;;;7.30;99.90;;;;;;5032859;28;20170;-66
2021/05/02 01:50:14;;;;;;;5.57;4.13;;;7.30;99.90;;;;;;5015131;28;20183;-67
2021/05/02 01:52:43;;;;;;;5.75;3.17;;;7.30;99.90;;;;;;5028044;28;20669;-66
2021/05/02 01:55:11;;;;;;;3.65;3.35;;;7.20;99.90;;;;;;5034950;28;20178;-66
2021/05/02 01:57:37;;;;;;;5.72;4.97;;;7.20;99.90;;;;;;5033943;28;20220;-66
2021/05/02 02:00:10;;;;;;;5.93;5.35;;;7.20;99.90;;;;;;5033827;28;20198;-65
2021/05/02 02:02:38;;;;;;;6.60;6.03;;;7.10;99.90;;;;;;5034855;28;20691;-66
2021/05/02 02:05:04;;;;;;;3.15;3.00;;;7.10;99.90;;;;;;5034114;28;20170;-66
2021/05/02 02:07:31;;;;;;;6.40;4.47;;;7.10;99.90;;;;;;5014482;28;20170;-66
2021/05/02 02:09:57;;;;;;;4.05;3.65;;;7.10;99.90;;;;;;5014550;28;20204;-67
2021/05/02 02:12:23;;;;;;;5.28;4.70;;;7.10;99.90;;;;;;5034204;28;20268;-65
2021/05/02 02:14:51;;;;;;;6.47;4.70;;;7.10;99.90;;;;;;5034603;28;20671;-65
2021/05/02 02:17:18;;;;;;;3.63;3.33;;;7.10;99.90;;;;;;5015364;28;20202;-66
2021/05/02 02:19:44;;;;;;;4.05;3.65;;;7.00;99.90;;;;;;5014549;28;20210;-66
2021/05/02 02:22:11;;;;;;;2.85;2.65;;;7.10;99.90;;;;;;5031151;28;20170;-66
2021/05/02 02:24:57;;;;;;;5.20;3.58;;;7.10;99.90;;;;;;5022998;28;20201;-66
2021/05/02 02:27:29;;;;;;;4.00;3.60;;;7.10;99.90;;;;;;5031471;28;20178;-65
2021/05/02 02:30:18;;;;;;;4.53;4.22;;;7.10;99.90;;;;;;5034172;28;20575;-65
2021/05/02 02:32:47;;;;;;;13.63;5.45;;;7.00;99.90;;;;;;5045925;28;20192;-66
2021/05/02 02:35:15;;;;;;;7.45;4.50;;;7.10;99.90;;;;;;5014474;28;20160;-66
2021/05/02 02:37:45;;;;;;;5.40;4.93;;;7.10;99.90;;;;;;5032434;28;20276;-66
2021/05/02 02:40:14;;;;;;;3.20;2.40;;;7.10;99.90;;;;;;5016210;28;20206;-67
2021/05/02 02:42:45;;;;;;;5.47;5.07;;;7.10;99.90;;;;;;5031917;28;20182;-66
2021/05/02 02:45:13;;;;;;;9.05;5.10;;;7.10;99.90;;;;;;5033801;28;20220;-67
2021/05/02 02:47:48;;;;;;;2.92;2.83;;;7.10;99.90;;;;;;5016065;28;20186;-67
2021/05/02 02:50:16;;;;;;;8.00;3.88;;;7.10;99.90;;;;;;5015147;28;20197;-66
2021/05/02 02:52:51;;;;;;;3.63;3.42;;;7.10;99.90;;;;;;5015591;28;20206;-65
2021/05/02 02:55:19;;;;;;;4.80;4.18;;;7.20;99.90;;;;;;5014103;28;20227;-66
2021/05/02 02:58:00;;;;;;;3.80;3.50;;;7.10;99.90;;;;;;5030573;28;20261;-66
2021/05/02 03:00:30;;;;;;;6.63;6.07;;;7.10;99.90;;;;;;5033937;28;20209;-66
2021/05/02 03:03:17;;;;;;;5.13;4.28;;;7.10;99.90;;;;;;5014889;28;20175;-65
2021/05/02 03:05:44;;;;;;;5.00;4.60;;;7.10;99.90;;;;;;5013790;28;20632;-67
2021/05/02 03:08:11;;;;;;;6.05;5.45;;;7.10;99.90;;;;;;5033177;28;20190;-67
2021/05/02 03:10:40;;;;;;;5.10;4.70;;;7.20;99.90;;;;;;5033916;28;20183;-66
2021/05/02 03:13:06;;;;;;;4.75;3.80;;;7.20;99.90;;;;;;5031635;28;20569;-66
2021/05/02 03:15:32;;;;;;;6.83;4.73;;;7.10;99.90;;;;;;5033232;28;20277;-66
2021/05/02 03:18:14;;;;;;;4.43;4.03;;;7.20;99.90;;;;;;5014985;28;20445;-66
2021/05/02 03:20:44;;;;;;;5.70;4.78;;;7.10;99.90;;;;;;5013811;28;20453;-66
2021/05/02 03:23:29;;;;;;;3.78;3.47;;;7.10;99.90;;;;;;5032069;28;20194;-67
2021/05/02 03:26:00;;;;;;;6.72;5.00;;;7.10;99.90;;;;;;5032461;28;20190;-68
2021/05/02 03:28:32;;;;;;;3.95;3.00;;;7.20;99.90;;;;;;5016385;28;20216;-66
2021/05/02 03:31:00;;;;;;;4.97;4.60;;;7.10;99.90;;;;;;5020542;28;20202;-65
2021/05/02 03:33:32;;;;;;;5.63;5.07;;;7.10;99.90;;;;;;5039535;28;20663;-66
2021/05/02 03:36:01;;;;;;;9.50;4.18;;;7.10;99.90;;;;;;5039516;28;20198;-66
2021/05/02 03:38:34;;;;;;;6.00;4.80;;;7.10;99.90;;;;;;5025597;28;20193;-65
2021/05/02 03:41:00;;;;;;;5.55;3.25;;;7.10;99.90;;;;;;5039957;28;20197;-66
2021/05/02 03:43:26;;;;;;;5.13;4.13;;;7.10;99.90;;;;;;5020399;28;20192;-65
2021/05/02 03:45:52;;;;;;;4.73;4.33;;;7.10;99.90;;;;;;5019711;28;20629;-68
2021/05/02 03:48:17;;;;;;;6.60;4.40;;;7.10;99.90;;;;;;5037178;28;21004;-65
2021/05/02 03:50:43;;;;;;;4.67;4.37;;;7.10;99.90;;;;;;5039821;28;20213;-65
2021/05/02 03:53:09;;;;;;;5.03;3.40;;;7.10;99.90;;;;;;5022811;28;20179;-66
2021/05/02 03:55:46;;;;;;;4.03;3.63;;;7.10;99.90;;;;;;5027083;28;20179;-66
2021/05/02 03:58:13;;;;;;;4.28;3.97;;;7.10;99.90;;;;;;5039735;28;20198;-66
2021/05/02 04:00:40;;;;;;;4.75;4.20;;;7.10;99.90;;;;;;5032062;28;20241;-66
2021/05/02 04:03:06;;;;;;;2.67;2.42;;;7.10;99.90;;;;;;5038033;28;20185;-66
2021/05/02 04:05:32;;;;;;;6.30;4.40;;;7.10;99.90;;;;;;5036405;28;20178;-66
2021/05/02 04:07:57;;;;;;;5.13;3.73;;;7.10;99.90;;;;;;5039301;28;20187;-66
2021/05/02 04:10:24;;;;;;;5.20;4.57;;;7.10;99.90;;;;;;5034508;28;20947;-66
2021/05/02 04:12:50;;;;;;;7.18;4.68;;;7.20;99.90;;;;;;5019594;28;20270;-66
2021/05/02 04:15:16;;;;;;;6.28;5.05;;;7.20;99.90;;;;;;5022967;28;20174;-65
2021/05/02 04:17:41;;;;;;;3.70;3.40;;;7.10;99.90;;;;;;5037286;28;20186;-66
2021/05/02 04:20:08;;;;;;;5.47;3.57;;;7.10;99.90;;;;;;5037711;28;20494;-66
2021/05/02 04:22:33;;;;;;;3.92;2.90;;;7.10;99.90;;;;;;5019829;28;20176;-65
2021/05/02 04:24:59;;;;;;;5.43;3.27;;;7.10;99.90;;;;;;5019717;28;20218;-66
2021/05/02 04:27:25;;;;;;;17.40;5.50;;;7.20;99.90;;;;;;5038237;28;20541;-65
2021/05/02 04:29:50;;;;;;;7.60;5.10;;;7.20;99.90;;;;;;5039264;28;20187;-65
2021/05/02 04:32:16;;;;;;;7.93;5.20;;;7.20;99.90;;;;;;5035835;28;20205;-65
2021/05/02 04:34:42;;;;;;;6.57;5.23;;;7.20;99.90;;;;;;5039688;28;20179;-65
2021/05/02 04:37:08;;;;;;;4.77;4.30;;;7.20;99.90;;;;;;5021628;28;20184;-65
2021/05/02 04:39:34;;;;;;;5.70;4.23;;;7.20;99.90;;;;;;5018388;28;20513;-64
2021/05/02 04:42:00;;;;;;;5.38;4.85;;;7.20;99.90;;;;;;5016654;28;20192;-65
2021/05/02 04:44:26;;;;;;;4.77;3.90;;;7.20;99.90;;;;;;5016325;28;20168;-65
2021/05/02 04:46:52;;;;;;;6.95;4.38;;;7.20;99.90;;;;;;5029156;28;20416;-65
2021/05/02 04:49:20;;;;;;;5.10;4.60;;;7.30;99.90;;;;;;5035898;28;20213;-65
2021/05/02 04:51:45;;;;;;;5.47;5.13;;;7.30;99.90;;;;;;5034902;28;20210;-65
2021/05/02 04:54:11;;;;;;;6.53;5.37;;;7.30;99.90;;;;;;5036295;28;20644;-65
2021/05/02 04:56:38;;;;;;;4.80;4.50;;;7.30;99.90;;;;;;5023525;28;20250;-65
2021/05/02 04:59:05;;;;;;;4.65;4.10;;;7.30;99.90;;;;;;5015972;28;20444;-64
2021/05/02 05:01:31;;;;;;;6.40;4.47;;;7.40;99.90;;;;;;5026124;28;20668;-65
2021/05/02 05:03:57;;;;;;;5.93;5.43;;;7.40;99.90;;;;;;5035824;28;20167;-64
2021/05/02 05:06:24;;;;;;;4.93;4.53;;;7.50;99.90;;;;;;5026732;28;20422;-64
2021/05/02 05:08:50;;;;;;;8.10;7.32;;;7.50;99.90;;;;;;5015937;28;20550;-65
2021/05/02 05:11:16;;;;;;;7.07;6.30;;;7.50;99.90;;;;;;5023616;28;20186;-65
2021/05/02 05:13:41;;;;;;;4.63;4.37;;;7.60;99.90;;;;;;5031535;28;20243;-65
2021/05/02 05:16:07;;;;;;;7.57;5.90;;;7.60;99.90;;;;;;5021142;28;20184;-64
2021/05/02 05:18:33;;;;;;;5.80;5.20;;;7.70;99.90;;;;;;5035416;28;20683;-65
2021/05/02 05:20:59;;;;;;;3.70;3.33;;;7.70;99.90;;;;;;5027016;28;20202;-64
2021/05/02 05:23:24;;;;;;;5.27;4.83;;;7.80;99.90;;;;;;5035600;28;20208;-65
2021/05/02 05:25:52;;;;;;;6.40;5.80;;;7.80;99.90;;;;;;5047874;28;20437;-65
2021/05/02 05:28:18;;;;;;;10.93;5.32;;;7.90;99.90;;;;;;5015809;28;20785;-65
2021/05/02 05:30:44;;;;;;;7.53;3.90;;;7.90;99.90;;;;;;5017087;28;20177;-65
2021/05/02 05:33:10;;;;;;;6.90;6.17;;;8.00;99.90;;;;;;5035403;28;20170;-65
2021/05/02 05:35:37;;;;;;;8.43;6.20;;;8.00;99.90;;;;;;5021008;28;20171;-65
2021/05/02 05:38:04;;;;;;;9.95;4.30;;;8.00;99.90;;;;;;5015227;28;20425;-65
2021/05/02 05:40:30;;;;;;;6.35;5.82;;;8.00;99.90;;;;;;5031625;28;20227;-65
2021/05/02 05:42:56;;;;;;;7.77;2.73;;;8.10;99.90;;;;;;5032994;28;20203;-65
2021/05/02 05:45:22;;;;;;;7.72;4.63;;;8.10;99.90;;;;;;5030289;28;20410;-65
2021/05/02 05:47:50;;;;;;;6.13;3.75;;;8.20;99.90;;;;;;5031195;28;20193;-64
2021/05/02 05:50:16;;;;;;;4.45;4.05;;;8.30;99.90;;;;;;5024197;28;20264;-64
2021/05/02 05:52:43;;;;;;;10.90;6.30;;;8.40;99.90;;;;;;5020928;28;20645;-65
2021/05/02 05:55:11;;;;;;;5.03;3.35;;;8.50;99.90;;;;;;5031586;28;20185;-66
2021/05/02 05:57:37;;;;;;;8.38;5.13;;;8.60;99.90;;;;;;5032563;28;20520;-65
2021/05/02 06:00:08;;;;;;;8.90;5.00;;;8.60;99.90;;;;;;5030194;28;20275;-69
2021/05/02 06:02:34;;;;;;;4.32;3.90;;;8.70;99.90;;;;;;5029616;28;20443;-65
2021/05/02 06:05:00;;;;;;;8.48;5.88;;;8.80;99.90;;;;;;5020055;28;20570;-65
2021/05/02 06:07:26;;;;;;;8.90;5.13;;;8.80;99.90;;;;;;5027199;28;20208;-65
2021/05/02 06:09:52;;;;;;;4.93;4.20;;;8.90;99.90;;;;;;5021565;28;20609;-65
2021/05/02 06:12:19;;;;;;;7.80;4.57;;;9.00;99.90;;;;;;5015019;28;20182;-65
2021/05/02 06:14:44;;;;;;;5.00;4.28;;;9.00;99.90;;;;;;5025500;28;20174;-65
2021/05/02 06:17:10;;;;;;;5.67;4.80;;;9.20;99.90;;;;;;5034109;28;20174;-65
2021/05/02 06:19:36;;;;;;;7.47;4.17;;;9.30;99.90;;;;;;5023815;28;20213;-66
2021/05/02 06:22:02;;;;;;;6.50;4.60;;;9.40;99.90;;;;;;5028256;28;20178;-65
2021/05/02 06:24:27;;;;;;;9.63;6.40;;;9.60;99.90;;;;;;5025744;28;20186;-66
2021/05/02 06:26:53;;;;;;;6.50;5.73;;;9.80;99.90;;;;;;5014141;28;20174;-65
2021/05/02 06:29:18;;;;;;;7.57;5.30;;;10.00;99.90;;;;;;5019666;28;20205;-67
2021/05/02 06:31:44;;;;;;;9.27;5.80;;;10.30;99.90;;;;;;5033161;28;20188;-66
2021/05/02 06:34:10;;;;;;;13.10;8.20;;;10.60;99.90;;;;;;5024982;28;20178;-67
2021/05/02 06:36:38;;;;;;;13.03;6.10;;;10.80;99.90;;;;;;5033452;28;20170;-67
2021/05/02 06:39:04;;;;;;;11.80;6.63;;;10.90;99.90;;;;;;5028055;28;20286;-66
2021/05/02 06:41:30;;;;;;;11.98;4.72;;;10.90;99.90;;;;;;5017997;28;20578;-65
2021/05/02 06:43:55;;;;;;;10.70;6.17;;;11.00;99.90;;;;;;5034229;28;20213;-65
2021/05/02 06:46:28;;;;;;;12.70;6.53;;;11.00;99.90;;;;;;5031944;28;20179;-67
2021/05/02 06:49:04;;;;;;;10.52;4.68;;;11.10;99.90;;;;;;5025872;28;20194;-68
2021/05/02 06:51:30;;;;;;;10.40;5.65;;;11.20;99.90;;;;;;5031311;28;20319;-67
2021/05/02 06:53:56;;;;;;;9.05;4.47;;;11.30;99.90;;;;;;5014608;28;20702;-67
2021/05/02 06:56:23;;;;;;;11.35;5.63;;;11.40;99.90;;;;;;5016043;28;20633;-69
2021/05/02 06:58:51;;;;;;;16.73;6.82;;;11.50;99.90;;;;;;5012944;28;20204;-69
2021/05/02 07:01:16;;;;;;;11.45;6.65;;;11.50;99.90;;;;;;5012954;28;20203;-69
2021/05/02 07:03:45;;;;;;;15.93;8.20;;;11.60;99.90;;;;;;5031603;28;20260;-71
2021/05/02 07:06:11;;;;;;;13.90;7.97;;;11.70;99.90;;;;;;5031387;28;20632;-67
2021/05/02 07:08:37;;;;;;;12.33;6.00;;;11.90;99.90;;;;;;5029153;28;20445;-70
2021/05/02 07:11:03;;;;;;;12.70;7.50;;;11.90;99.90;;;;;;5052366;28;20405;-72
2021/05/02 07:13:29;;;;;;;11.47;5.50;;;11.90;99.90;;;;;;5041987;28;20280;-73
2021/05/02 07:15:57;;;;;;;10.07;5.40;;;12.00;99.90;;;;;;5012473;28;20455;-71
2021/05/02 07:18:23;;;;;;;13.27;6.83;;;12.00;99.90;;;;;;5013669;28;20444;-69
2021/05/02 07:20:51;;;;;;;12.40;7.40;;;12.10;99.90;;;;;;5013011;28;20463;-70
2021/05/02 07:23:17;;;;;;;15.10;5.90;;;12.30;99.90;;;;;;5017931;28;20423;-67
2021/05/02 07:25:42;;;;;;;12.73;5.63;;;12.40;99.90;;;;;;5040286;28;20427;-70
2021/05/02 07:28:09;;;;;;;14.03;7.47;;;12.40;99.90;;;;;;5029243;28;20446;-69
2021/05/02 07:30:35;;;;;;;13.70;6.90;;;12.50;99.90;;;;;;5053082;28;20429;-67
2021/05/02 07:33:01;;;;;;;10.97;6.20;;;12.60;99.90;;;;;;5041914;28;20435;-67
2021/05/02 07:35:27;;;;;;;11.27;5.77;;;12.70;99.90;;;;;;5033555;28;20414;-68
2021/05/02 07:37:53;;;;;;;14.27;5.33;;;12.80;99.90;;;;;;5024580;28;20911;-68
2021/05/02 07:40:19;;;;;;;11.10;5.37;;;13.30;99.90;;;;;;5018467;28;20456;-67
2021/05/02 07:42:44;;;;;;;13.10;7.40;;;13.90;99.90;;;;;;5033326;28;20253;-68
2021/05/02 07:45:10;;;;;;;11.40;5.70;;;14.60;99.90;;;;;;5023091;28;20184;-67
2021/05/02 07:47:36;;;;;;;10.60;6.60;;;15.10;99.90;;;;;;5013026;28;20182;-67
2021/05/02 07:50:03;;;;;;;12.23;6.60;;;15.90;99.90;;;;;;5019411;28;20919;-68
2021/05/02 07:52:29;;;;;;;12.00;6.50;;;16.60;99.90;;;;;;5033583;28;20412;-67
2021/05/02 07:54:55;;;;;;;9.77;6.20;;;17.50;99.90;;;;;;5022513;28;20795;-72
2021/05/02 07:57:20;;;;;;;12.60;7.17;;;18.20;99.00;;;;;;5052427;28;20179;-66
2021/05/02 07:59:46;;;;;;;11.13;6.43;;;18.40;96.40;;;;;;5024074;28;20249;-68
2021/05/02 08:02:13;;;;;;;9.30;6.30;;;18.30;95.10;;;;;;5045948;28;20178;-68
2021/05/02 08:04:39;;;;;;;10.60;5.40;;;18.00;94.00;;;;;;5028163;28;20174;-69
2021/05/02 08:07:06;;;;;;;9.20;5.93;;;17.70;95.50;;;;;;5041267;28;20808;-68
2021/05/02 08:09:32;;;;;;;8.93;5.93;;;17.50;94.40;;;;;;5039827;28;20931;-69
2021/05/02 08:11:58;;;;;;;9.57;5.67;;;17.20;94.60;;;;;;5052647;28;20426;-68
2021/05/02 08:14:24;;;;;;;11.03;6.80;;;16.90;95.00;;;;;;5027866;28;20509;-70
2021/05/02 08:16:49;;;;;;;8.50;6.10;;;16.80;96.20;;;;;;5025991;28;20471;-68
2021/05/02 08:19:15;;;;;;;9.60;5.70;;;16.70;95.30;;;;;;5025779;28;20568;-68
2021/05/02 08:21:41;;;;;;;9.27;6.50;;;16.60;95.10;;;;;;5024997;28;20171;-70
2021/05/02 08:24:07;;;;;;;9.40;5.80;;;16.40;95.50;;;;;;5026320;28;20253;-65
2021/05/02 08:26:32;;;;;;;12.17;6.63;;;16.20;95.00;;;;;;5021307;28;20178;-67
2021/05/02 08:28:58;;;;;;;11.50;6.17;;;16.10;95.90;;;;;;5016948;28;20857;-64
2021/05/02 08:31:24;;;;;;;12.57;7.33;;;15.90;96.10;;;;;;5016268;28;20249;-65
2021/05/02 08:33:49;;;;;;;8.60;5.90;;;15.70;95.70;;;;;;5020778;28;20209;-66
2021/05/02 08:36:17;;;;;;;10.17;6.20;;;15.50;95.80;;;;;;5035974;28;20267;-65
2021/05/02 08:38:43;;;;;;;10.30;6.57;;;15.30;95.70;;;;;;5032542;28;20626;-64
2021/05/02 08:41:09;;;;;;;8.60;5.77;;;14.80;96.50;;;;;;5016326;28;20457;-65
2021/05/02 08:43:36;;;;;;;7.80;5.00;;;14.30;96.90;;;;;;5017548;28;20843;-66
2021/05/02 08:46:02;;;;;;;10.23;5.73;;;14.10;97.40;;;;;;5035634;28;20241;-65
2021/05/02 08:48:28;;;;;;;8.20;5.17;;;14.60;97.90;;;;;;5035648;28;20426;-66
2021/05/02 08:50:55;;;;;;;11.77;6.83;;;15.20;96.80;;;;;;5016444;28;20455;-65
2021/05/02 08:53:22;;;;;;;9.30;4.87;;;15.50;95.30;;;;;;5019893;28;20230;-65
2021/05/02 08:55:47;;;;;;;8.43;6.10;;;15.60;95.30;;;;;;5035570;28;20404;-65
2021/05/02 08:58:17;;;;;;;8.60;5.00;;;15.30;94.30;;;;;;5033547;28;20951;-64
2021/05/02 09:00:44;;;;;;;9.67;6.03;;;15.20;95.50;;;;;;5016092;28;20217;-65
2021/05/02 09:03:10;;;;;;;9.30;5.53;;;15.00;95.10;;;;;;5017670;28;20407;-64
2021/05/02 09:05:46;;;;;;;10.97;5.83;;;14.90;95.50;;;;;;5035270;28;20427;-65
2021/05/02 09:08:32;;;;;;;10.80;7.00;;;14.80;95.20;;;;;;5033841;28;20426;-64
2021/05/02 09:10:58;;;;;;;9.07;6.17;;;14.70;96.20;;;;;;5015652;28;20810;-64
2021/05/02 09:13:25;;;;;;;12.90;7.00;;;15.50;95.80;;;;;;5017901;28;20420;-65
2021/05/02 09:16:05;;;;;;;10.30;5.20;;;16.00;94.80;;;;;;5034820;28;21012;-65
2021/05/02 09:18:33;;;;;;;10.33;6.90;;;16.50;93.80;;;;;;5032296;28;20478;-65
2021/05/02 09:20:59;;;;;;;9.87;5.77;;;17.30;93.40;;;;;;5015523;28;20549;-66
2021/05/02 09:23:40;;;;;;;9.17;5.73;;;17.70;91.90;;;;;;5017901;28;20430;-65
2021/05/02 09:26:08;;;;;;;8.10;5.30;;;18.00;90.70;;;;;;5034237;28;20771;-66
2021/05/02 09:28:40;;;;;;;10.63;5.97;;;18.50;88.50;;;;;;5031901;28;20442;-66
2021/05/02 09:31:07;;;;;;;8.50;5.13;;;19.30;86.00;;;;;;5015640;28;20398;-65
2021/05/02 09:33:33;;;;;;;8.67;6.03;;;19.80;86.60;;;;;;5015924;28;20477;-66
2021/05/02 09:36:00;;;;;;;9.77;6.63;;;19.90;83.90;;;;;;5034977;28;20379;-65
2021/05/02 09:38:27;;;;;;;13.20;8.47;;;19.60;82.00;;;;;;5034449;28;20478;-65
2021/05/02 09:40:59;;;;;;;8.40;6.10;;;19.00;80.60;;;;;;5018102;28;20456;-64
2021/05/02 09:43:33;;;;;;;7.50;5.68;;;18.30;83.30;;;;;;5028085;28;20416;-65
2021/05/02 09:48:57;;;;;;;9.47;6.50;;;18.70;86.70;;;;;;5024158;28;20473;-66
2021/05/02 09:51:25;;;;;;;9.77;7.67;;;18.70;84.90;;;;;;5034857;28;20427;-64
2021/05/02 09:54:13;;;;;;;9.90;6.70;;;18.80;85.70;;;;;;5015326;28;20465;-65
2021/05/02 09:56:55;;;;;;;10.07;5.87;;;18.70;82.20;;;;;;5014508;28;20478;-65
2021/05/02 09:59:29;;;;;;;9.30;5.93;;;18.20;82.40;;;;;;5014960;28;20971;-66
2021/05/02 10:02:10;;;;;;;9.53;6.50;;;18.00;83.60;;;;;;5015137;28;20391;-67
2021/05/02 10:04:41;;;;;;;10.07;6.97;;;18.00;84.20;;;;;;5014762;28;20398;-65
2021/05/02 10:07:15;;;;;;;12.63;6.80;;;17.80;81.60;;;;;;5017338;28;20391;-65
2021/05/02 10:09:43;;;;;;;11.47;6.87;;;18.10;82.50;;;;;;5034128;28;20441;-63
2021/05/02 10:12:12;;;;;;;10.20;7.00;;;18.80;80.60;;;;;;5031812;28;20901;-65
2021/05/02 10:14:38;;;;;;;8.93;6.33;;;19.30;82.80;;;;;;5014760;28;20392;-65
2021/05/02 10:17:05;;;;;;;10.40;6.97;;;19.30;79.40;;;;;;5015359;28;20484;-64
2021/05/02 10:19:31;;;;;;;10.30;7.37;;;18.80;76.40;;;;;;5034263;28;20452;-65
2021/05/02 10:21:57;;;;;;;8.50;6.90;;;18.40;78.00;;;;;;5034101;28;20399;-66
2021/05/02 10:24:23;;;;;;;8.87;6.80;;;17.90;79.90;;;;;;5014604;28;20438;-66
2021/05/02 10:26:50;;;;;;;9.80;6.23;;;17.20;78.40;;;;;;5012987;28;20187;-65
2021/05/02 10:29:24;;;;;;;10.40;6.60;;;16.50;79.10;;;;;;5032153;28;20429;-66
2021/05/02 10:31:57;;;;;;;9.83;6.87;;;15.90;82.20;;;;;;5034329;28;20519;-65
2021/05/02 10:34:34;;;;;;;8.30;5.23;;;15.40;85.10;;;;;;5015476;28;20419;-65
2021/05/02 10:37:25;;;;;;;14.40;9.53;;;15.00;84.20;;;;;;5014181;28;20396;-66
2021/05/02 10:39:58;;;;;;;9.80;7.00;;;14.60;86.20;;;;;;5014190;28;20781;-67
2021/05/02 10:42:52;;;;;;;11.20;7.53;;;14.30;87.10;;;;;;5014590;28;20756;-65
2021/05/02 10:45:47;;;;;;;8.67;6.43;;;14.00;90.20;;;;;;5014097;28;20426;-65
2021/05/02 10:48:22;;;;;;;11.00;6.60;;;13.80;88.40;;;;;;5020533;28;20803;-65
2021/05/02 10:50:48;;;;;;;10.37;6.30;;;13.80;90.80;;;;;;5031906;28;20406;-66
2021/05/02 10:53:16;;;;;;;7.43;5.97;;;14.50;91.30;;;;;;5025980;28;20965;-64
2021/05/02 10:56:03;;;;;;;9.43;6.83;;;15.20;90.30;;;;;;5013886;28;20395;-65
2021/05/02 10:58:30;;;;;;;8.77;6.30;;;16.10;88.20;;;;;;5020969;28;20452;-66
2021/05/02 11:01:02;;;;;;;8.30;5.17;;;16.80;84.10;;;;;;5033388;28;20490;-66
2021/05/02 11:03:40;;;;;;;10.40;7.43;;;17.60;84.40;;;;;;5026821;28;20415;-67
2021/05/02 11:06:13;;;;;;;8.30;6.13;;;18.40;81.10;;;;;;5013761;28;20900;-64
2021/05/02 11:08:57;;;;;;;7.67;5.30;;;18.80;80.00;;;;;;5020997;28;20465;-65
2021/05/02 11:16:48;;;;;;;9.30;6.60;;;18.70;77.30;;;;;;5033325;28;20405;-65
2021/05/02 11:19:34;;;;;;;11.03;7.17;;;18.40;76.20;;;;;;5021121;28;20537;-65
2021/05/02 11:22:12;;;;;;;10.37;7.30;;;18.00;78.10;;;;;;5013402;28;20417;-65
2021/05/02 11:24:44;;;;;;;7.57;5.47;;;17.60;78.90;;;;;;5027984;28;20500;-65
2021/05/02 11:27:26;;;;;;;9.93;6.43;;;17.40;77.10;;;;;;5031695;28;20905;-64
2021/05/02 11:30:12;;;;;;;8.53;6.17;;;17.10;78.70;;;;;;5015938;28;20458;-64
2021/05/02 11:32:40;;;;;;;9.53;6.10;;;16.80;79.30;;;;;;5013592;28;20409;-65
2021/05/02 11:35:06;;;;;;;10.87;6.33;;;16.40;80.30;;;;;;5031369;28;20991;-65
2021/05/02 11:37:45;;;;;;;8.50;6.20;;;16.10;82.60;;;;;;5032879;28;20488;-66
2021/05/02 11:40:33;;;;;;;9.00;6.20;;;15.60;82.20;;;;;;5014707;28;20468;-65
2021/05/02 11:43:07;;;;;;;8.63;5.80;;;15.20;83.20;;;;;;5013555;28;20484;-66
2021/05/02 11:45:56;;;;;;;7.60;6.13;;;14.90;84.80;;;;;;5028555;28;21023;-65
2021/05/02 11:48:23;;;;;;;12.80;7.30;;;14.50;84.70;;;;;;5032482;28;20443;-65
2021/05/02 11:50:53;;;;;;;10.03;5.90;;;14.00;87.90;;;;;;5031361;28;20482;-65
2021/05/02 11:53:40;;;;;;;11.00;7.60;;;13.30;90.60;;;;;;5016940;28;20439;-65
2021/05/02 11:56:11;;;;;;;9.13;5.50;;;13.00;92.70;;;;;;5022882;28;20414;-66
2021/05/02 11:58:36;;;;;;;8.53;5.27;;;12.80;93.40;;;;;;5036921;28;20950;-66
2021/05/02 12:01:04;;;;;;;7.00;5.20;;;12.80;94.10;;;;;;5031632;28;20535;-65
2021/05/02 12:03:38;;;;;;;8.10;5.03;;;13.00;95.80;;;;;;5017235;28;20631;-65
2021/05/02 12:06:05;;;;;;;7.13;5.40;;;13.20;93.80;;;;;;5021036;28;20413;-66
2021/05/02 12:08:32;;;;;;;10.60;4.63;;;13.20;93.30;;;;;;5036811;28;20501;-63
2021/05/02 12:11:04;;;;;;;7.03;3.87;;;13.10;92.10;;;;;;5033414;28;20450;-65
2021/05/02 12:13:40;;;;;;;5.57;3.53;;;13.00;90.80;;;;;;5017108;28;20765;-65
2021/05/02 12:16:08;;;;;;;5.83;3.57;;;13.10;91.80;;;;;;5016505;28;20560;-64
2021/05/02 12:18:56;;;;;;;5.50;3.90;;;13.20;91.40;;;;;;5016720;28;20978;-64
2021/05/02 12:21:36;;;;;;;5.10;3.93;;;13.30;91.40;;;;;;5016859;28;20454;-64
2021/05/02 12:24:15;;;;;;;5.83;3.67;;;13.50;91.50;;;;;;5020066;28;20423;-65
2021/05/02 12:26:53;;;;;;;7.70;3.97;;;13.70;92.60;;;;;;5036009;28;20428;-66
2021/05/02 12:29:25;;;;;;;5.50;3.63;;;13.70;91.00;;;;;;5030987;28;20446;-67
2021/05/02 12:32:04;;;;;;;6.73;3.30;;;13.50;89.50;;;;;;5016617;28;20780;-65
2021/05/02 12:34:32;;;;;;;7.33;3.90;;;13.40;91.00;;;;;;5021028;28;20517;-66
2021/05/02 12:37:09;;;;;;;5.47;3.30;;;13.20;90.50;;;;;;5035770;28;20898;-66
2021/05/02 12:39:37;;;;;;;6.50;3.90;;;13.30;91.40;;;;;;5029876;28;20462;-65
2021/05/02 12:42:04;;;;;;;10.60;5.10;;;13.30;91.30;;;;;;5015399;28;20417;-65
2021/05/02 12:44:30;;;;;;;6.67;4.97;;;13.30;92.00;;;;;;5020685;28;20831;-65
2021/05/02 12:46:59;;;;;;;6.47;4.10;;;13.30;91.60;;;;;;5035944;28;20453;-65
2021/05/02 12:49:34;;;;;;;7.87;4.83;;;13.40;91.70;;;;;;5030433;28;20451;-65
2021/05/02 12:52:11;;;;;;;7.87;4.70;;;13.40;91.10;;;;;;5016440;28;20427;-66
2021/05/02 12:54:37;;;;;;;6.80;4.67;;;13.50;92.00;;;;;;5021352;28;20423;-64
2021/05/02 12:57:14;;;;;;;4.03;2.10;;;13.40;92.20;;;;;;5035617;28;20406;-65
2021/05/02 12:59:49;;;;;;;5.07;2.67;;;13.50;91.40;;;;;;5030220;28;20247;-67
2021/05/02 13:02:30;;;;;;;4.97;2.33;;;13.50;90.60;;;;;;5014645;28;20420;-66
2021/05/02 13:04:59;;;;;;;3.73;2.27;;;13.60;91.50;;;;;;5023329;28;20423;-65
2021/05/02 13:07:31;;;;;;;5.17;2.67;;;13.90;90.80;;;;;;5035430;28;20404;-66
2021/05/02 13:09:58;;;;;;;4.90;2.70;;;14.20;89.90;;;;;;5028329;28;20825;-65